Time;durP1;ratioP1;P1;durP2;ratioP2;P2;SDS_P1;SDS_P2;PMS_P1;PMS_P2;Temp;Humidity;BMP_temperature;BMP_pressure;BME280_temperature;BME280_humidity;BME280_pressure;Samples;Min_cycle;Max_cycle;Signal;HPM_P1;HPM_P2
2022/06/11 00:00:41;;;;;;;14.18;7.43;;;18.20;99.90;;;;;;5085992;28;20124;-45
2022/06/11 00:03:07;;;;;;;11.18;5.93;;;18.10;99.90;;;;;;5062886;28;20584;-45
2022/06/11 00:05:34;;;;;;;8.80;5.55;;;18.00;99.90;;;;;;5076439;28;20062;-45
2022/06/11 00:08:01;;;;;;;11.38;6.75;;;18.00;99.90;;;;;;5074103;28;20049;-44
2022/06/11 00:10:28;;;;;;;12.50;5.57;;;18.00;99.90;;;;;;5053426;28;20076;-44
2022/06/11 00:12:54;;;;;;;11.55;5.72;;;17.90;99.90;;;;;;5053492;28;20049;-44
2022/06/11 00:15:21;;;;;;;12.43;6.15;;;17.90;99.90;;;;;;5055873;28;20084;-44
2022/06/11 00:17:51;;;;;;;9.32;6.70;;;17.90;99.90;;;;;;5065609;28;20474;-44
2022/06/11 00:20:19;;;;;;;10.07;5.85;;;17.80;99.90;;;;;;5056599;28;20420;-44
2022/06/11 00:22:45;;;;;;;13.00;6.25;;;17.80;99.90;;;;;;5057227;28;20041;-45
2022/06/11 00:25:12;;;;;;;11.48;5.47;;;17.80;99.90;;;;;;5068139;28;20102;-44
2022/06/11 00:27:39;;;;;;;13.43;7.68;;;17.70;99.90;;;;;;5069589;28;20076;-45
2022/06/11 00:30:08;;;;;;;15.75;7.40;;;17.60;99.90;;;;;;5053576;28;20049;-44
2022/06/11 00:32:34;;;;;;;14.85;7.20;;;17.60;99.90;;;;;;5057808;28;20050;-44
2022/06/11 00:35:03;;;;;;;13.30;5.80;;;17.60;99.90;;;;;;5071053;28;20049;-43
2022/06/11 00:37:30;;;;;;;11.63;6.68;;;17.50;99.90;;;;;;5061195;28;20055;-44
2022/06/11 00:39:57;;;;;;;8.98;5.82;;;17.50;99.90;;;;;;5073860;28;20049;-44
2022/06/11 00:42:26;;;;;;;7.78;5.93;;;17.40;99.90;;;;;;5060932;28;20049;-44
2022/06/11 00:45:16;;;;;;;10.40;5.43;;;17.40;99.90;;;;;;5067923;28;20053;-44
2022/06/11 00:47:44;;;;;;;8.13;5.30;;;17.30;99.90;;;;;;5062591;28;20151;-44
2022/06/11 00:50:17;;;;;;;13.63;6.70;;;17.30;99.90;;;;;;5074427;28;20101;-45
2022/06/11 00:52:45;;;;;;;11.75;7.13;;;17.30;99.90;;;;;;5053341;28;20048;-44
2022/06/11 00:55:13;;;;;;;8.05;6.07;;;17.20;99.90;;;;;;5060886;28;20102;-45
2022/06/11 00:57:42;;;;;;;10.55;5.88;;;17.20;99.90;;;;;;5053401;28;20057;-44
2022/06/11 01:00:12;;;;;;;9.65;6.20;;;17.10;99.90;;;;;;5053251;28;20049;-44
2022/06/11 01:02:39;;;;;;;10.20;6.20;;;17.10;99.90;;;;;;5065294;28;20127;-44
2022/06/11 01:05:07;;;;;;;12.18;6.80;;;17.00;99.90;;;;;;5067439;28;20084;-44
2022/06/11 01:07:56;;;;;;;12.50;7.18;;;17.00;99.90;;;;;;5056516;28;20053;-45
2022/06/11 01:10:45;;;;;;;14.77;6.20;;;17.00;99.90;;;;;;5061989;28;20100;-44
2022/06/11 01:13:17;;;;;;;13.73;7.10;;;16.90;99.90;;;;;;5067266;28;20057;-45
2022/06/11 01:15:46;;;;;;;12.63;6.55;;;16.90;99.90;;;;;;5060936;28;20056;-44
2022/06/11 01:18:25;;;;;;;10.50;6.75;;;16.90;99.90;;;;;;5071002;28;20131;-45
2022/06/11 01:20:54;;;;;;;14.80;6.85;;;16.80;99.90;;;;;;5060011;28;20083;-44
2022/06/11 01:24:06;;;;;;;11.90;6.50;;;16.80;99.90;;;;;;5066367;28;20076;-44
2022/06/11 01:27:27;;;;;;;12.73;6.88;;;16.80;99.90;;;;;;5063184;28;20128;-44
2022/06/11 01:29:57;;;;;;;9.95;6.32;;;16.70;99.90;;;;;;5027555;28;20127;-45
2022/06/11 01:32:35;;;;;;;9.15;6.28;;;16.70;99.90;;;;;;5014888;28;20161;-45
2022/06/11 01:35:08;;;;;;;10.10;5.88;;;16.60;99.90;;;;;;5027620;28;20098;-44
2022/06/11 01:37:39;;;;;;;7.80;5.57;;;16.60;99.90;;;;;;5066479;28;20095;-45
2022/06/11 01:40:08;;;;;;;10.20;6.40;;;16.60;99.90;;;;;;5075005;28;20105;-45
2022/06/11 01:42:40;;;;;;;9.38;5.80;;;16.50;99.90;;;;;;5060926;28;20071;-44
2022/06/11 01:45:14;;;;;;;10.73;6.97;;;16.50;99.90;;;;;;5065972;28;20079;-45
2022/06/11 01:47:41;;;;;;;11.02;7.03;;;16.50;99.90;;;;;;5064971;28;20128;-45
2022/06/11 01:50:09;;;;;;;12.23;7.10;;;16.40;99.90;;;;;;5063425;28;20084;-44
2022/06/11 01:52:53;;;;;;;11.40;7.25;;;16.40;99.90;;;;;;5053840;28;20049;-45
2022/06/11 01:55:25;;;;;;;13.32;6.45;;;16.40;99.90;;;;;;5066502;28;20095;-44
2022/06/11 01:58:00;;;;;;;14.00;7.10;;;16.40;99.90;;;;;;5060141;28;20088;-45
2022/06/11 02:00:30;;;;;;;9.55;6.93;;;16.30;99.90;;;;;;5056604;28;20063;-44
2022/06/11 02:03:21;;;;;;;14.57;8.45;;;16.30;99.90;;;;;;5066249;28;20044;-45
2022/06/11 02:06:06;;;;;;;15.85;8.27;;;16.30;99.90;;;;;;5071229;28;20068;-44
2022/06/11 02:08:40;;;;;;;15.75;8.20;;;16.30;99.90;;;;;;5054868;28;20477;-44
2022/06/11 02:11:09;;;;;;;14.38;8.27;;;16.20;99.90;;;;;;5065941;28;20492;-44
2022/06/11 02:13:38;;;;;;;13.38;8.20;;;16.20;99.90;;;;;;5066051;28;20087;-45
2022/06/11 02:16:09;;;;;;;18.65;8.27;;;16.20;99.90;;;;;;5064141;28;20393;-45
2022/06/11 02:18:36;;;;;;;14.17;9.27;;;16.20;99.90;;;;;;5067477;28;20123;-45
2022/06/11 02:21:05;;;;;;;21.10;8.63;;;16.20;99.90;;;;;;5070950;28;20131;-45
2022/06/11 02:23:36;;;;;;;16.23;9.82;;;16.10;99.90;;;;;;5057449;28;20049;-44
2022/06/11 02:26:05;;;;;;;13.70;7.80;;;16.10;99.90;;;;;;5064807;28;20063;-44
2022/06/11 02:28:34;;;;;;;18.45;8.73;;;16.10;99.90;;;;;;5063388;28;20056;-45
2022/06/11 02:31:03;;;;;;;13.32;7.40;;;16.00;99.90;;;;;;5065129;28;20103;-44
2022/06/11 02:33:32;;;;;;;16.30;8.50;;;16.00;99.90;;;;;;5077589;28;20080;-45
2022/06/11 02:36:01;;;;;;;14.55;7.75;;;16.00;99.90;;;;;;5068612;28;20101;-45
2022/06/11 02:38:29;;;;;;;16.35;7.13;;;16.00;99.90;;;;;;5066982;28;20505;-44
2022/06/11 02:40:57;;;;;;;17.45;7.82;;;16.00;99.90;;;;;;5068444;28;20476;-45
2022/06/11 02:43:24;;;;;;;18.65;8.20;;;16.00;99.90;;;;;;5061137;28;20080;-44
2022/06/11 02:45:51;;;;;;;12.57;7.00;;;16.00;99.90;;;;;;5064136;28;20111;-44
2022/06/11 02:48:17;;;;;;;24.33;9.30;;;15.90;99.90;;;;;;5069721;28;20467;-45
2022/06/11 02:50:46;;;;;;;20.60;9.25;;;15.90;99.90;;;;;;5069134;28;20084;-44
2022/06/11 02:53:13;;;;;;;19.73;7.82;;;15.90;99.90;;;;;;5062040;28;20473;-45
2022/06/11 02:55:40;;;;;;;16.23;8.23;;;15.90;99.90;;;;;;5063416;28;20554;-44
2022/06/11 02:58:08;;;;;;;14.48;9.00;;;15.90;99.90;;;;;;5060817;28;21283;-44
2022/06/11 03:00:36;;;;;;;20.45;9.00;;;15.80;99.90;;;;;;5064993;28;20562;-45
2022/06/11 03:03:03;;;;;;;19.65;9.85;;;15.80;99.90;;;;;;5067231;28;20073;-44
2022/06/11 03:05:31;;;;;;;19.40;10.65;;;15.70;99.90;;;;;;5061024;28;20433;-44
2022/06/11 03:07:59;;;;;;;13.80;8.43;;;15.70;99.90;;;;;;5063998;28;20049;-44
2022/06/11 03:10:26;;;;;;;17.42;8.70;;;15.70;99.90;;;;;;5069218;28;20124;-45
2022/06/11 03:12:53;;;;;;;18.67;10.07;;;15.70;99.90;;;;;;5064718;28;20041;-44
2022/06/11 03:15:20;;;;;;;19.52;10.93;;;15.70;99.90;;;;;;5062642;28;20080;-45
2022/06/11 03:17:47;;;;;;;19.98;11.60;;;15.60;99.90;;;;;;5063251;28;20379;-44
2022/06/11 03:20:15;;;;;;;19.25;10.55;;;15.60;99.90;;;;;;5070389;28;20049;-44
2022/06/11 03:22:42;;;;;;;20.88;11.35;;;15.60;99.90;;;;;;5064034;28;20080;-43
2022/06/11 03:25:10;;;;;;;18.30;9.95;;;15.60;99.90;;;;;;5053503;28;20057;-43
2022/06/11 03:27:38;;;;;;;21.73;11.88;;;15.60;99.90;;;;;;5062039;28;20129;-43
2022/06/11 03:30:06;;;;;;;21.00;11.93;;;15.60;99.90;;;;;;5066347;28;20041;-43
2022/06/11 03:32:33;;;;;;;24.90;13.00;;;15.60;99.90;;;;;;5065468;28;20048;-43
2022/06/11 03:35:00;;;;;;;20.25;13.35;;;15.50;99.90;;;;;;5067587;28;20234;-43
2022/06/11 03:37:27;;;;;;;20.85;11.38;;;15.50;99.90;;;;;;5065553;28;20139;-43
2022/06/11 03:39:53;;;;;;;26.80;11.63;;;15.50;99.90;;;;;;5060137;28;20071;-43
2022/06/11 03:42:22;;;;;;;18.15;10.60;;;15.50;99.90;;;;;;5063859;28;20456;-43
2022/06/11 03:44:48;;;;;;;19.85;11.00;;;15.50;99.90;;;;;;5062974;28;20059;-44
2022/06/11 03:47:15;;;;;;;18.23;10.02;;;15.50;99.90;;;;;;5063637;28;20079;-43
2022/06/11 03:49:42;;;;;;;16.85;10.35;;;15.50;99.90;;;;;;5067664;28;20090;-42
2022/06/11 03:52:10;;;;;;;20.08;9.85;;;15.50;99.90;;;;;;5058045;28;20127;-43
2022/06/11 03:54:37;;;;;;;18.00;9.80;;;15.40;99.90;;;;;;5063243;28;20396;-43
2022/06/11 03:57:04;;;;;;;20.05;9.73;;;15.40;99.90;;;;;;5057539;28;20145;-44
2022/06/11 03:59:33;;;;;;;19.67;9.85;;;15.40;99.90;;;;;;5061961;28;20051;-43
2022/06/11 04:02:00;;;;;;;20.15;9.95;;;15.40;99.90;;;;;;5063351;28;20075;-43
2022/06/11 04:04:27;;;;;;;19.45;9.30;;;15.50;99.90;;;;;;5065719;28;20049;-43
2022/06/11 04:06:56;;;;;;;17.95;8.43;;;15.40;99.90;;;;;;5063061;28;20148;-43
2022/06/11 04:09:25;;;;;;;14.18;7.78;;;15.40;99.90;;;;;;5070188;28;20484;-43
2022/06/11 04:11:52;;;;;;;16.15;8.05;;;15.40;99.90;;;;;;5063305;28;20060;-43
2022/06/11 04:14:19;;;;;;;19.08;8.50;;;15.40;99.90;;;;;;5062314;28;20056;-43
2022/06/11 04:16:48;;;;;;;17.75;8.57;;;15.30;99.90;;;;;;5067534;28;20518;-43
2022/06/11 04:19:18;;;;;;;20.98;8.25;;;15.30;99.90;;;;;;5061582;28;20053;-43
2022/06/11 04:21:45;;;;;;;16.38;7.00;;;15.40;99.90;;;;;;5059512;28;20140;-44
2022/06/11 04:24:12;;;;;;;19.52;7.63;;;15.30;99.90;;;;;;5052772;28;20444;-44
2022/06/11 04:26:40;;;;;;;11.48;6.18;;;15.30;99.90;;;;;;5057123;28;20114;-43
2022/06/11 04:29:08;;;;;;;17.13;6.60;;;15.30;99.90;;;;;;5062612;28;20111;-44
2022/06/11 04:31:35;;;;;;;18.02;6.78;;;15.30;99.90;;;;;;5061906;28;20041;-44
2022/06/11 04:34:03;;;;;;;19.58;6.20;;;15.30;99.90;;;;;;5060043;28;20122;-44
2022/06/11 04:36:32;;;;;;;16.75;4.95;;;15.30;99.90;;;;;;5056499;28;20128;-44
2022/06/11 04:38:59;;;;;;;18.67;5.72;;;15.30;99.90;;;;;;5066865;28;20458;-43
2022/06/11 04:41:26;;;;;;;17.42;5.40;;;15.30;99.90;;;;;;5064762;28;20037;-44
2022/06/11 04:43:53;;;;;;;20.65;6.28;;;15.30;99.90;;;;;;5055816;28;20040;-43
2022/06/11 04:46:20;;;;;;;16.15;4.55;;;15.30;99.90;;;;;;5060946;28;20083;-44
2022/06/11 04:48:47;;;;;;;18.45;5.03;;;15.30;99.90;;;;;;5063989;28;20765;-43
2022/06/11 04:51:15;;;;;;;15.88;4.68;;;15.30;99.90;;;;;;5072247;28;20469;-44
2022/06/11 04:53:44;;;;;;;23.02;5.85;;;15.40;99.90;;;;;;5052883;28;20056;-43
2022/06/11 04:56:11;;;;;;;17.60;5.00;;;15.40;99.90;;;;;;5062403;28;20049;-43
2022/06/11 04:58:37;;;;;;;18.38;4.97;;;15.40;99.90;;;;;;5059090;28;20493;-44
2022/06/11 05:01:04;;;;;;;19.00;4.68;;;15.40;99.90;;;;;;5056943;28;20087;-43
2022/06/11 05:03:31;;;;;;;14.25;4.50;;;15.40;99.90;;;;;;5062450;28;20080;-43
2022/06/11 05:05:58;;;;;;;24.27;4.63;;;15.40;99.90;;;;;;5051100;28;20092;-43
2022/06/11 05:08:26;;;;;;;18.30;4.25;;;15.50;99.90;;;;;;5052556;28;20511;-44
2022/06/11 05:10:53;;;;;;;18.45;4.50;;;15.50;99.90;;;;;;5051440;28;20083;-44
2022/06/11 05:13:20;;;;;;;18.02;4.20;;;15.60;99.90;;;;;;5054896;28;20099;-43
2022/06/11 05:15:48;;;;;;;18.55;4.57;;;15.60;99.90;;;;;;5059984;28;20469;-44
2022/06/11 05:18:15;;;;;;;22.30;4.57;;;15.60;99.90;;;;;;5062372;28;20489;-43
2022/06/11 05:20:41;;;;;;;22.08;4.47;;;15.70;99.90;;;;;;5066234;28;20077;-43
2022/06/11 05:23:09;;;;;;;18.02;4.45;;;15.80;99.90;;;;;;5065575;28;20574;-44
2022/06/11 05:25:38;;;;;;;17.00;4.05;;;15.90;99.90;;;;;;5056395;28;20126;-44
2022/06/11 05:28:05;;;;;;;15.98;4.32;;;15.90;99.90;;;;;;5059399;28;20044;-43
2022/06/11 05:30:32;;;;;;;23.90;4.70;;;16.00;99.90;;;;;;5062590;28;20049;-44
2022/06/11 05:33:00;;;;;;;15.40;3.95;;;16.10;99.90;;;;;;5060793;28;20369;-44
2022/06/11 05:35:29;;;;;;;24.13;4.93;;;16.20;99.90;;;;;;5052123;28;20048;-44
2022/06/11 05:37:57;;;;;;;16.92;4.28;;;16.30;99.90;;;;;;5062379;28;20079;-44
2022/06/11 05:40:27;;;;;;;21.10;5.00;;;16.30;99.90;;;;;;5059519;28;20051;-44
2022/06/11 05:42:55;;;;;;;23.42;4.80;;;16.40;99.90;;;;;;5054234;28;20060;-44
2022/06/11 05:45:23;;;;;;;32.92;5.10;;;16.50;99.90;;;;;;5076149;28;20135;-44
2022/06/11 05:47:51;;;;;;;24.85;5.68;;;16.60;99.90;;;;;;5057636;28;20489;-44
2022/06/11 05:50:19;;;;;;;20.95;4.45;;;16.70;99.90;;;;;;5070264;28;20076;-44
2022/06/11 05:52:46;;;;;;;21.58;4.95;;;16.70;99.90;;;;;;5060102;28;20136;-44
2022/06/11 05:55:13;;;;;;;20.15;5.18;;;16.80;99.90;;;;;;5060340;28;20547;-44
2022/06/11 05:57:40;;;;;;;23.80;4.10;;;16.90;99.90;;;;;;5065824;28;20105;-44
2022/06/11 06:00:10;;;;;;;25.92;5.13;;;17.00;99.90;;;;;;5061607;28;20114;-44
2022/06/11 06:02:38;;;;;;;20.73;4.93;;;17.10;99.90;;;;;;5068437;28;20072;-44
2022/06/11 06:05:05;;;;;;;29.73;5.05;;;17.20;99.90;;;;;;5067639;28;20052;-44
2022/06/11 06:07:32;;;;;;;25.50;5.10;;;17.20;99.90;;;;;;5065357;28;20073;-44
2022/06/11 06:09:59;;;;;;;20.75;4.68;;;17.30;99.90;;;;;;5064671;28;20774;-44
2022/06/11 06:12:26;;;;;;;24.17;5.20;;;17.40;99.90;;;;;;5065401;28;20071;-44
2022/06/11 06:14:52;;;;;;;17.48;4.28;;;17.40;99.90;;;;;;5061188;28;20105;-44
2022/06/11 06:17:20;;;;;;;21.10;5.10;;;17.60;99.90;;;;;;5063284;28;20147;-45
2022/06/11 06:19:48;;;;;;;29.35;5.63;;;17.60;99.90;;;;;;5056224;28;20087;-45
2022/06/11 06:22:14;;;;;;;28.70;6.15;;;17.70;99.90;;;;;;5060506;28;20102;-45
2022/06/11 06:24:47;;;;;;;26.80;5.57;;;17.80;99.90;;;;;;5059757;28;20076;-44
2022/06/11 06:27:13;;;;;;;21.10;4.60;;;17.90;99.90;;;;;;5062395;28;20049;-45
2022/06/11 06:29:40;;;;;;;22.88;4.78;;;18.00;99.90;;;;;;5058154;28;20086;-43
2022/06/11 06:32:07;;;;;;;30.38;5.50;;;18.10;99.90;;;;;;5060443;28;20055;-43
2022/06/11 06:34:36;;;;;;;25.70;5.65;;;18.20;99.90;;;;;;5052829;28;20068;-43
2022/06/11 06:37:03;;;;;;;24.95;5.55;;;18.30;99.90;;;;;;5055819;28;20126;-44
2022/06/11 06:39:30;;;;;;;34.15;5.88;;;18.30;99.90;;;;;;5052371;28;20128;-43
2022/06/11 06:41:57;;;;;;;26.00;4.82;;;18.50;99.90;;;;;;5058257;28;20139;-43
2022/06/11 06:44:23;;;;;;;31.13;5.78;;;18.60;99.90;;;;;;5053901;28;20088;-43
2022/06/11 06:46:50;;;;;;;23.88;5.45;;;18.60;99.90;;;;;;5061282;28;20447;-43
2022/06/11 06:49:18;;;;;;;25.98;5.20;;;18.80;99.90;;;;;;5059418;28;20116;-44
2022/06/11 06:51:46;;;;;;;22.42;5.50;;;18.80;99.90;;;;;;5064780;28;20049;-43
2022/06/11 06:54:12;;;;;;;25.17;4.72;;;18.90;99.90;;;;;;5052979;28;20076;-44
2022/06/11 06:56:39;;;;;;;30.90;5.18;;;19.00;99.90;;;;;;5055058;28;20109;-44
2022/06/11 06:59:06;;;;;;;33.53;5.93;;;19.10;99.90;;;;;;5055955;28;20427;-44
2022/06/11 07:01:33;;;;;;;32.53;6.43;;;19.20;99.90;;;;;;5052134;28;20467;-44
2022/06/11 07:04:00;;;;;;;27.15;5.68;;;19.30;99.90;;;;;;5058248;28;20044;-44
2022/06/11 07:06:28;;;;;;;27.63;4.68;;;19.40;99.90;;;;;;5054240;28;20128;-45
2022/06/11 07:08:56;;;;;;;31.48;5.25;;;19.50;99.90;;;;;;5059899;28;20045;-44
2022/06/11 07:11:23;;;;;;;25.02;5.75;;;19.60;99.90;;;;;;5057748;28;20056;-44
2022/06/11 07:13:50;;;;;;;34.05;5.68;;;19.70;99.90;;;;;;5061019;28;20110;-44
2022/06/11 07:16:18;;;;;;;22.40;4.72;;;19.80;99.90;;;;;;5057611;28;20079;-44
2022/06/11 07:18:47;;;;;;;38.80;6.32;;;19.90;99.90;;;;;;5053958;28;20136;-44
2022/06/11 07:21:15;;;;;;;27.90;6.25;;;20.00;99.90;;;;;;5079548;28;20131;-44
2022/06/11 07:23:43;;;;;;;26.05;4.93;;;20.10;99.90;;;;;;5066047;28;20049;-44
2022/06/11 07:26:14;;;;;;;27.35;5.60;;;20.10;99.90;;;;;;5059125;28;20575;-44
2022/06/11 07:28:43;;;;;;;24.92;6.18;;;20.20;99.90;;;;;;5055946;28;20110;-44
2022/06/11 07:31:10;;;;;;;34.13;6.38;;;20.20;99.90;;;;;;5056215;28;20091;-44
2022/06/11 07:33:37;;;;;;;29.60;5.32;;;20.30;99.90;;;;;;5057789;28;20087;-45
2022/06/11 07:36:04;;;;;;;35.08;6.53;;;20.30;99.90;;;;;;5056876;28;20465;-44
2022/06/11 07:38:31;;;;;;;34.75;6.80;;;20.30;99.90;;;;;;5058983;28;20072;-44
2022/06/11 07:40:58;;;;;;;32.30;6.00;;;20.40;99.90;;;;;;5059193;28;20132;-44
2022/06/11 07:43:26;;;;;;;26.80;4.93;;;20.60;99.60;;;;;;5060239;28;20056;-45
2022/06/11 07:45:53;;;;;;;33.03;6.22;;;20.60;99.60;;;;;;5061333;28;20052;-45
2022/06/11 07:48:19;;;;;;;26.85;6.00;;;20.70;99.40;;;;;;5062799;28;20124;-45
2022/06/11 07:50:47;;;;;;;27.80;6.00;;;20.80;99.20;;;;;;5070357;28;20114;-44
2022/06/11 07:53:14;;;;;;;31.45;5.90;;;20.90;98.90;;;;;;5057178;28;20072;-44
2022/06/11 07:55:43;;;;;;;28.48;6.70;;;20.90;98.70;;;;;;5074213;28;20079;-44
2022/06/11 07:58:10;;;;;;;26.40;5.07;;;20.90;98.40;;;;;;5058332;28;20574;-44
2022/06/11 08:00:40;;;;;;;28.98;5.70;;;20.90;98.50;;;;;;5059756;28;20073;-44
2022/06/11 08:03:07;;;;;;;29.30;6.13;;;21.00;98.40;;;;;;5058832;28;20483;-44
2022/06/11 08:05:34;;;;;;;29.15;6.00;;;21.20;98.00;;;;;;5054328;28;20045;-44
2022/06/11 08:08:01;;;;;;;30.35;6.90;;;21.30;97.40;;;;;;5060047;28;20056;-44
2022/06/11 08:10:29;;;;;;;26.13;5.30;;;21.30;97.20;;;;;;5060515;28;20045;-45
2022/06/11 08:12:56;;;;;;;25.90;5.68;;;21.30;96.50;;;;;;5055705;28;20135;-45
2022/06/11 08:15:22;;;;;;;26.58;5.40;;;21.30;96.90;;;;;;5056422;28;20378;-45
2022/06/11 08:17:51;;;;;;;27.90;4.95;;;21.40;97.10;;;;;;5059118;28;20122;-45
2022/06/11 08:20:19;;;;;;;30.40;6.00;;;21.60;97.00;;;;;;5054782;28;20045;-45
2022/06/11 08:22:46;;;;;;;25.67;4.95;;;21.80;97.00;;;;;;5067523;28;20098;-45
2022/06/11 08:25:13;;;;;;;27.42;5.28;;;21.90;96.30;;;;;;5054394;28;20462;-45
2022/06/11 08:27:40;;;;;;;24.20;5.53;;;21.90;95.70;;;;;;5056994;28;20077;-45
2022/06/11 08:30:07;;;;;;;28.80;5.85;;;21.90;95.80;;;;;;5061123;28;20044;-45
2022/06/11 08:32:34;;;;;;;24.77;4.88;;;21.90;95.20;;;;;;5057821;28;20085;-45
2022/06/11 08:35:02;;;;;;;29.65;5.85;;;21.90;95.10;;;;;;5059283;28;20127;-45
2022/06/11 08:37:29;;;;;;;25.02;4.95;;;22.00;95.00;;;;;;5060082;28;20044;-45
2022/06/11 08:39:56;;;;;;;35.25;7.43;;;22.00;95.00;;;;;;5052785;28;20049;-45
2022/06/11 08:42:30;;;;;;;28.23;5.32;;;22.10;94.80;;;;;;5058357;28;20079;-46
2022/06/11 08:44:57;;;;;;;21.98;4.85;;;22.30;94.60;;;;;;5053270;28;20049;-45
2022/06/11 08:47:27;;;;;;;26.70;5.82;;;22.40;94.30;;;;;;5058026;28;20064;-45
2022/06/11 08:49:54;;;;;;;24.23;6.03;;;22.30;94.30;;;;;;5054525;28;20057;-45
2022/06/11 08:52:23;;;;;;;26.20;5.47;;;22.40;94.60;;;;;;5057191;28;20467;-45
2022/06/11 08:54:50;;;;;;;24.98;5.25;;;22.50;93.80;;;;;;5055576;28;21305;-45
2022/06/11 08:57:21;;;;;;;23.52;4.85;;;22.40;93.20;;;;;;5054356;28;20049;-45
2022/06/11 08:59:55;;;;;;;27.42;5.97;;;22.20;93.00;;;;;;5055498;28;20053;-45
2022/06/11 09:02:34;;;;;;;24.00;5.00;;;22.20;93.60;;;;;;5053940;28;20052;-46
2022/06/11 09:05:11;;;;;;;18.73;3.95;;;22.30;93.30;;;;;;5052997;28;20547;-45
2022/06/11 09:07:45;;;;;;;22.42;5.43;;;22.50;93.20;;;;;;5063758;28;20059;-43
2022/06/11 09:10:20;;;;;;;23.10;4.78;;;22.70;92.90;;;;;;5053397;28;20095;-44
2022/06/11 09:12:56;;;;;;;24.35;5.10;;;22.90;92.60;;;;;;5055365;28;20048;-46
2022/06/11 09:15:29;;;;;;;20.25;4.72;;;23.10;91.50;;;;;;5060159;28;20101;-44
2022/06/11 09:18:11;;;;;;;20.33;3.70;;;23.20;90.30;;;;;;5057160;28;20099;-44
2022/06/11 09:20:42;;;;;;;19.38;3.75;;;23.30;90.50;;;;;;5060163;28;20084;-44
2022/06/11 09:23:35;;;;;;;17.67;3.65;;;23.50;89.60;;;;;;5060653;28;20115;-44
2022/06/11 09:26:12;;;;;;;17.02;4.00;;;23.60;89.40;;;;;;5057076;28;20448;-44
2022/06/11 09:28:41;;;;;;;17.80;4.25;;;23.60;86.90;;;;;;5069908;28;20132;-44
2022/06/11 09:31:12;;;;;;;18.98;4.18;;;23.60;85.60;;;;;;5055967;28;20258;-45
2022/06/11 09:33:41;;;;;;;21.95;4.30;;;23.60;84.10;;;;;;5054067;28;20091;-45
2022/06/11 09:36:09;;;;;;;16.00;3.38;;;23.60;83.50;;;;;;5055751;28;20053;-44
2022/06/11 09:38:41;;;;;;;22.83;4.53;;;23.60;82.90;;;;;;5050206;28;20084;-45
2022/06/11 09:41:15;;;;;;;20.50;3.92;;;23.70;82.20;;;;;;5055028;28;20502;-45
2022/06/11 09:43:45;;;;;;;15.93;3.60;;;23.80;80.60;;;;;;5056312;28;20811;-45
2022/06/11 09:46:16;;;;;;;15.32;3.53;;;23.90;80.00;;;;;;5054591;28;20554;-44
2022/06/11 09:48:57;;;;;;;15.48;3.60;;;23.90;80.70;;;;;;5061491;28;20056;-44
2022/06/11 09:51:28;;;;;;;15.20;3.53;;;23.90;77.30;;;;;;5067591;28;20139;-45
2022/06/11 09:54:02;;;;;;;17.13;3.67;;;23.80;78.60;;;;;;5070577;28;20440;-44
2022/06/11 09:56:38;;;;;;;15.07;3.03;;;23.90;77.30;;;;;;5062321;28;20072;-44
2022/06/11 09:59:12;;;;;;;17.08;3.85;;;23.90;78.40;;;;;;5056923;28;20049;-44
2022/06/11 10:01:44;;;;;;;18.90;3.83;;;24.20;80.20;;;;;;5052960;28;20049;-44
2022/06/11 10:04:11;;;;;;;14.90;3.55;;;24.40;77.40;;;;;;5049110;28;20109;-45
2022/06/11 10:06:40;;;;;;;17.60;3.90;;;24.60;78.00;;;;;;5050534;28;20102;-44
2022/06/11 10:09:13;;;;;;;17.05;3.60;;;24.70;74.60;;;;;;5053141;28;20131;-44
2022/06/11 10:11:44;;;;;;;17.70;3.83;;;24.80;73.70;;;;;;5052824;28;20098;-45
2022/06/11 10:14:31;;;;;;;16.67;4.13;;;24.90;73.90;;;;;;5056123;28;20516;-44
2022/06/11 10:17:01;;;;;;;15.38;3.70;;;25.10;73.00;;;;;;5051717;28;20171;-44
2022/06/11 10:19:32;;;;;;;20.33;5.15;;;25.30;72.40;;;;;;5055733;28;20055;-44
2022/06/11 10:22:01;;;;;;;17.58;4.07;;;25.40;71.70;;;;;;5052302;28;20048;-44
2022/06/11 10:24:29;;;;;;;14.05;3.75;;;25.50;69.70;;;;;;5055024;28;20132;-44
2022/06/11 10:26:59;;;;;;;12.60;2.95;;;25.50;69.50;;;;;;5050537;28;20084;-44
2022/06/11 10:29:28;;;;;;;15.48;2.95;;;25.60;69.00;;;;;;5055692;28;20127;-43
2022/06/11 10:31:56;;;;;;;14.48;3.80;;;25.70;69.50;;;;;;5053464;28;20106;-44
2022/06/11 10:34:23;;;;;;;14.68;3.42;;;25.70;69.30;;;;;;5053445;28;20049;-44
2022/06/11 10:36:52;;;;;;;15.93;3.55;;;25.80;68.40;;;;;;5070264;28;20405;-44
2022/06/11 10:39:22;;;;;;;12.95;3.15;;;25.90;68.70;;;;;;5062058;28;20573;-44
2022/06/11 10:41:54;;;;;;;17.35;3.92;;;26.00;67.80;;;;;;5052649;28;20582;-44
2022/06/11 10:44:29;;;;;;;16.40;3.90;;;26.10;67.50;;;;;;5061955;28;20113;-45
2022/06/11 10:46:56;;;;;;;15.20;3.10;;;26.10;66.30;;;;;;5068707;28;20052;-45
2022/06/11 10:49:23;;;;;;;15.43;4.07;;;26.00;65.00;;;;;;5058094;28;20498;-45
2022/06/11 10:51:58;;;;;;;14.98;3.40;;;25.90;63.00;;;;;;5069723;28;20540;-44
2022/06/11 10:54:25;;;;;;;13.52;3.70;;;25.90;61.20;;;;;;5053824;28;20041;-45
2022/06/11 10:56:57;;;;;;;13.50;3.70;;;25.80;62.50;;;;;;5050242;28;20110;-45
2022/06/11 10:59:26;;;;;;;17.15;3.80;;;25.80;63.10;;;;;;5058520;28;20052;-45
2022/06/11 11:01:57;;;;;;;14.15;3.17;;;25.70;62.70;;;;;;5062379;28;20103;-45
2022/06/11 11:04:31;;;;;;;18.50;3.30;;;25.70;62.10;;;;;;5061660;28;20088;-45
2022/06/11 11:07:11;;;;;;;15.55;3.60;;;25.70;61.30;;;;;;5066115;28;20033;-45
2022/06/11 11:09:38;;;;;;;15.93;4.22;;;25.50;61.00;;;;;;5056237;28;20049;-45
2022/06/11 11:12:08;;;;;;;15.38;3.50;;;25.40;62.20;;;;;;5062689;28;20153;-45
2022/06/11 11:14:38;;;;;;;14.30;3.10;;;25.40;62.20;;;;;;5068881;28;20087;-45
2022/06/11 11:17:07;;;;;;;11.27;2.85;;;25.50;63.70;;;;;;5065976;28;20488;-46
2022/06/11 11:19:34;;;;;;;16.75;3.60;;;25.50;64.10;;;;;;5071395;28;20056;-45
2022/06/11 11:22:10;;;;;;;15.63;3.83;;;25.60;63.80;;;;;;5065695;28;20049;-46
2022/06/11 11:24:38;;;;;;;17.05;3.63;;;25.70;63.00;;;;;;5067553;28;20135;-45
2022/06/11 11:27:09;;;;;;;18.35;3.92;;;25.80;63.60;;;;;;5064094;28;20142;-45
2022/06/11 11:29:36;;;;;;;;;;;25.90;61.40;;;;;;5069237;28;20487;-45
2022/06/11 11:32:06;;;;;;;16.88;3.25;;;25.70;61.30;;;;;;5063795;28;19974;-45
2022/06/11 11:34:33;;;;;;;14.70;3.47;;;25.70;62.10;;;;;;5065651;28;20184;-45
2022/06/11 11:37:21;;;;;;;13.38;3.33;;;25.70;61.90;;;;;;5061321;28;20072;-46
2022/06/11 11:39:50;;;;;;;15.93;3.78;;;25.90;62.10;;;;;;5070954;28;20049;-45
2022/06/11 11:42:20;;;;;;;16.40;3.17;;;26.00;61.30;;;;;;5079769;28;20056;-44
2022/06/11 11:44:49;;;;;;;16.42;3.70;;;26.20;61.20;;;;;;5068962;28;20140;-45
2022/06/11 11:47:22;;;;;;;12.88;3.20;;;26.30;60.20;;;;;;5073024;28;20052;-44
2022/06/11 11:49:55;;;;;;;12.88;3.22;;;26.50;59.90;;;;;;5063739;28;20580;-45
2022/06/11 11:52:23;;;;;;;15.10;3.88;;;26.60;59.40;;;;;;5062399;28;20061;-46
2022/06/11 11:54:55;;;;;;;17.13;3.92;;;26.70;59.10;;;;;;5067934;28;20099;-44
2022/06/11 11:57:23;;;;;;;14.50;4.07;;;26.70;58.00;;;;;;5063020;28;20091;-45
2022/06/11 11:59:51;;;;;;;16.35;3.63;;;26.90;58.30;;;;;;5070514;28;20053;-44
2022/06/11 12:02:20;;;;;;;12.85;3.58;;;26.90;57.70;;;;;;5071606;28;20049;-44
2022/06/11 12:04:52;;;;;;;12.73;3.63;;;26.90;56.70;;;;;;5071339;28;20447;-45
2022/06/11 12:07:23;;;;;;;16.27;3.67;;;27.00;55.80;;;;;;5067614;28;20048;-45
2022/06/11 12:09:50;;;;;;;19.40;4.18;;;26.90;55.60;;;;;;5073300;28;20484;-45
2022/06/11 12:12:20;;;;;;;15.23;3.60;;;26.80;56.00;;;;;;5061924;28;20080;-45
2022/06/11 12:14:52;;;;;;;15.13;3.67;;;26.90;56.60;;;;;;5057521;28;20144;-45
2022/06/11 12:17:24;;;;;;;19.00;4.00;;;27.00;56.00;;;;;;5060061;28;20048;-45
2022/06/11 12:19:53;;;;;;;16.25;3.97;;;27.10;56.40;;;;;;5059215;28;20053;-45
2022/06/11 12:22:24;;;;;;;18.58;3.78;;;27.20;56.00;;;;;;5067562;28;20088;-45
2022/06/11 12:24:51;;;;;;;15.43;3.63;;;27.20;55.90;;;;;;5058149;28;20105;-45
2022/06/11 12:27:22;;;;;;;14.52;3.95;;;27.10;56.30;;;;;;5065817;28;20080;-46
2022/06/11 12:29:51;;;;;;;15.18;4.20;;;27.20;57.00;;;;;;5068544;28;20076;-45
2022/06/11 12:32:19;;;;;;;15.23;3.10;;;27.20;56.50;;;;;;5073178;28;20049;-45
2022/06/11 12:34:46;;;;;;;18.60;3.50;;;27.30;56.20;;;;;;5068210;28;20583;-45
2022/06/11 12:37:16;;;;;;;14.38;3.50;;;27.30;56.00;;;;;;5054805;28;20551;-45
2022/06/11 12:39:48;;;;;;;15.63;3.50;;;27.40;55.40;;;;;;5063754;28;20044;-45
2022/06/11 12:42:18;;;;;;;12.18;3.50;;;27.30;55.70;;;;;;5071254;28;20067;-45
2022/06/11 12:44:56;;;;;;;17.67;3.22;;;27.20;55.70;;;;;;5053482;28;20057;-45
2022/06/11 12:47:53;;;;;;;12.80;4.10;;;27.30;56.10;;;;;;5054530;28;20128;-45
2022/06/11 12:50:27;;;;;;;17.50;4.13;;;27.20;56.10;;;;;;5063627;28;20076;-45